sensor_id;sensor_type;location;lat;lon;timestamp;temperature;humidity
24035;DHT22;12242;50.952;4.678;2022-12-07T00:01:42;7.70;99.90
24035;DHT22;12242;50.952;4.678;2022-12-07T00:04:13;7.70;99.90
24035;DHT22;12242;50.952;4.678;2022-12-07T00:06:43;7.80;99.90
24035;DHT22;12242;50.952;4.678;2022-12-07T00:09:16;7.80;99.90
24035;DHT22;12242;50.952;4.678;2022-12-07T00:11:44;7.80;99.90
24035;DHT22;12242;50.952;4.678;2022-12-07T00:14:18;7.70;99.90
24035;DHT22;12242;50.952;4.678;2022-12-07T00:16:49;7.70;99.90
24035;DHT22;12242;50.952;4.678;2022-12-07T00:19:16;7.70;99.90
24035;DHT22;12242;50.952;4.678;2022-12-07T00:21:44;7.70;99.90
24035;DHT22;12242;50.952;4.678;2022-12-07T00:24:12;7.50;99.90
24035;DHT22;12242;50.952;4.678;2022-12-07T00:26:41;7.50;99.90
24035;DHT22;12242;50.952;4.678;2022-12-07T00:29:19;7.50;99.90
24035;DHT22;12242;50.952;4.678;2022-12-07T00:31:50;7.50;99.90
24035;DHT22;12242;50.952;4.678;2022-12-07T00:34:19;7.50;99.90
24035;DHT22;12242;50.952;4.678;2022-12-07T00:36:47;7.40;99.90
24035;DHT22;12242;50.952;4.678;2022-12-07T00:39:15;7.30;99.90
24035;DHT22;12242;50.952;4.678;2022-12-07T00:41:45;7.40;99.90
24035;DHT22;12242;50.952;4.678;2022-12-07T00:44:14;7.40;99.90
24035;DHT22;12242;50.952;4.678;2022-12-07T00:46:44;7.30;99.90
24035;DHT22;12242;50.952;4.678;2022-12-07T00:49:14;7.50;99.90
24035;DHT22;12242;50.952;4.678;2022-12-07T00:51:44;7.50;99.90
24035;DHT22;12242;50.952;4.678;2022-12-07T00:54:14;7.60;99.90
24035;DHT22;12242;50.952;4.678;2022-12-07T00:56:42;7.70;99.90
24035;DHT22;12242;50.952;4.678;2022-12-07T00:59:13;7.70;99.90
24035;DHT22;12242;50.952;4.678;2022-12-07T01:01:43;7.80;99.90
24035;DHT22;12242;50.952;4.678;2022-12-07T01:04:11;7.80;99.90
24035;DHT22;12242;50.952;4.678;2022-12-07T01:06:39;7.70;99.90
24035;DHT22;12242;50.952;4.678;2022-12-07T01:09:08;7.60;99.90
24035;DHT22;12242;50.952;4.678;2022-12-07T01:11:40;7.60;99.90
24035;DHT22;12242;50.952;4.678;2022-12-07T01:14:11;7.60;99.90
24035;DHT22;12242;50.952;4.678;2022-12-07T01:16:38;7.50;99.90
24035;DHT22;12242;50.952;4.678;2022-12-07T01:19:06;7.50;99.90
24035;DHT22;12242;50.952;4.678;2022-12-07T01:21:35;7.50;99.90
24035;DHT22;12242;50.952;4.678;2022-12-07T01:24:06;7.60;99.90
24035;DHT22;12242;50.952;4.678;2022-12-07T01:26:37;7.70;99.90
24035;DHT22;12242;50.952;4.678;2022-12-07T01:29:07;7.80;99.90
24035;DHT22;12242;50.952;4.678;2022-12-07T01:31:35;7.80;99.90
24035;DHT22;12242;50.952;4.678;2022-12-07T01:34:03;7.80;99.90
24035;DHT22;12242;50.952;4.678;2022-12-07T01:36:35;7.90;99.90
24035;DHT22;12242;50.952;4.678;2022-12-07T01:39:06;7.90;99.90
24035;DHT22;12242;50.952;4.678;2022-12-07T01:41:37;7.90;99.90
24035;DHT22;12242;50.952;4.678;2022-12-07T01:44:22;7.90;99.90
24035;DHT22;12242;50.952;4.678;2022-12-07T01:47:01;7.90;99.90
24035;DHT22;12242;50.952;4.678;2022-12-07T01:49:40;7.90;99.90
24035;DHT22;12242;50.952;4.678;2022-12-07T01:52:28;7.90;99.90
24035;DHT22;12242;50.952;4.678;2022-12-07T01:55:03;7.80;99.90
24035;DHT22;12242;50.952;4.678;2022-12-07T01:57:32;7.80;99.90
24035;DHT22;12242;50.952;4.678;2022-12-07T02:00:00;7.80;99.90
24035;DHT22;12242;50.952;4.678;2022-12-07T02:02:36;7.70;99.90
24035;DHT22;12242;50.952;4.678;2022-12-07T02:05:05;7.70;99.90
24035;DHT22;12242;50.952;4.678;2022-12-07T02:07:36;7.50;99.90
24035;DHT22;12242;50.952;4.678;2022-12-07T02:10:25;7.40;99.90
24035;DHT22;12242;50.952;4.678;2022-12-07T02:26:16;7.20;99.90
24035;DHT22;12242;50.952;4.678;2022-12-07T02:31:30;7.20;99.90
24035;DHT22;12242;50.952;4.678;2022-12-07T02:34:14;7.20;99.90
24035;DHT22;12242;50.952;4.678;2022-12-07T02:36:52;7.10;99.90
24035;DHT22;12242;50.952;4.678;2022-12-07T02:39:31;7.20;99.90
24035;DHT22;12242;50.952;4.678;2022-12-07T02:42:13;7.20;99.90
24035;DHT22;12242;50.952;4.678;2022-12-07T02:44:42;7.30;99.90
24035;DHT22;12242;50.952;4.678;2022-12-07T02:47:13;7.30;99.90
24035;DHT22;12242;50.952;4.678;2022-12-07T02:49:42;7.40;99.90
24035;DHT22;12242;50.952;4.678;2022-12-07T02:52:09;7.50;99.90
24035;DHT22;12242;50.952;4.678;2022-12-07T02:54:37;7.50;99.90
24035;DHT22;12242;50.952;4.678;2022-12-07T02:57:25;7.50;99.90
24035;DHT22;12242;50.952;4.678;2022-12-07T03:00:09;7.50;99.90
24035;DHT22;12242;50.952;4.678;2022-12-07T03:07:52;7.40;99.90
24035;DHT22;12242;50.952;4.678;2022-12-07T03:16:28;7.50;99.90
24035;DHT22;12242;50.952;4.678;2022-12-07T03:19:05;7.60;99.90
24035;DHT22;12242;50.952;4.678;2022-12-07T03:21:46;7.60;99.90
24035;DHT22;12242;50.952;4.678;2022-12-07T03:24:25;7.60;99.90
24035;DHT22;12242;50.952;4.678;2022-12-07T03:27:05;7.50;99.90
24035;DHT22;12242;50.952;4.678;2022-12-07T03:29:37;7.40;99.90
24035;DHT22;12242;50.952;4.678;2022-12-07T03:35:05;7.40;99.90
24035;DHT22;12242;50.952;4.678;2022-12-07T03:40:26;7.40;99.90
24035;DHT22;12242;50.952;4.678;2022-12-07T03:42:56;7.40;99.90
24035;DHT22;12242;50.952;4.678;2022-12-07T03:45:39;7.50;99.90
24035;DHT22;12242;50.952;4.678;2022-12-07T03:49:00;7.50;99.90
24035;DHT22;12242;50.952;4.678;2022-12-07T03:51:24;7.50;99.90
24035;DHT22;12242;50.952;4.678;2022-12-07T03:54:00;7.60;99.90
24035;DHT22;12242;50.952;4.678;2022-12-07T03:56:33;7.60;99.90
24035;DHT22;12242;50.952;4.678;2022-12-07T03:59:02;7.60;99.90
24035;DHT22;12242;50.952;4.678;2022-12-07T04:01:31;7.50;99.90
24035;DHT22;12242;50.952;4.678;2022-12-07T04:03:59;7.50;99.90
24035;DHT22;12242;50.952;4.678;2022-12-07T04:06:26;7.50;99.90
24035;DHT22;12242;50.952;4.678;2022-12-07T04:08:56;7.50;99.90
24035;DHT22;12242;50.952;4.678;2022-12-07T04:11:28;7.40;99.90
24035;DHT22;12242;50.952;4.678;2022-12-07T04:13:57;7.40;99.90
24035;DHT22;12242;50.952;4.678;2022-12-07T04:16:43;7.30;99.90
24035;DHT22;12242;50.952;4.678;2022-12-07T04:19:13;7.30;99.90
24035;DHT22;12242;50.952;4.678;2022-12-07T04:21:41;7.20;99.90
24035;DHT22;12242;50.952;4.678;2022-12-07T04:24:11;7.10;99.90
24035;DHT22;12242;50.952;4.678;2022-12-07T04:26:39;7.00;99.90
24035;DHT22;12242;50.952;4.678;2022-12-07T04:29:07;6.90;99.90
24035;DHT22;12242;50.952;4.678;2022-12-07T04:31:37;6.90;99.90
24035;DHT22;12242;50.952;4.678;2022-12-07T04:34:08;6.90;99.90
24035;DHT22;12242;50.952;4.678;2022-12-07T04:36:37;6.80;99.90
24035;DHT22;12242;50.952;4.678;2022-12-07T04:39:06;6.80;99.90
24035;DHT22;12242;50.952;4.678;2022-12-07T04:41:33;6.80;99.90
24035;DHT22;12242;50.952;4.678;2022-12-07T04:44:02;6.80;99.90
24035;DHT22;12242;50.952;4.678;2022-12-07T04:46:31;6.80;99.90
24035;DHT22;12242;50.952;4.678;2022-12-07T04:48:59;6.80;99.90
24035;DHT22;12242;50.952;4.678;2022-12-07T04:51:28;6.90;99.90
24035;DHT22;12242;50.952;4.678;2022-12-07T04:53:58;6.90;99.90
24035;DHT22;12242;50.952;4.678;2022-12-07T04:56:28;6.80;99.90
24035;DHT22;12242;50.952;4.678;2022-12-07T04:58:55;6.70;99.90
24035;DHT22;12242;50.952;4.678;2022-12-07T05:01:25;6.70;99.90
24035;DHT22;12242;50.952;4.678;2022-12-07T05:03:52;6.70;99.90
24035;DHT22;12242;50.952;4.678;2022-12-07T05:06:20;6.70;99.90
24035;DHT22;12242;50.952;4.678;2022-12-07T05:08:47;6.70;99.90
24035;DHT22;12242;50.952;4.678;2022-12-07T05:11:15;6.70;99.90
24035;DHT22;12242;50.952;4.678;2022-12-07T05:14:02;6.70;99.90
24035;DHT22;12242;50.952;4.678;2022-12-07T05:16:32;6.70;99.90
24035;DHT22;12242;50.952;4.678;2022-12-07T05:19:03;6.60;99.90
24035;DHT22;12242;50.952;4.678;2022-12-07T05:21:32;6.70;99.90
24035;DHT22;12242;50.952;4.678;2022-12-07T05:24:03;6.80;99.90
24035;DHT22;12242;50.952;4.678;2022-12-07T05:26:30;6.90;99.90
24035;DHT22;12242;50.952;4.678;2022-12-07T05:29:03;7.00;99.90
24035;DHT22;12242;50.952;4.678;2022-12-07T05:31:33;6.90;99.90
24035;DHT22;12242;50.952;4.678;2022-12-07T05:34:03;6.90;99.90
24035;DHT22;12242;50.952;4.678;2022-12-07T05:36:32;6.90;99.90
24035;DHT22;12242;50.952;4.678;2022-12-07T05:39:02;6.80;99.90
24035;DHT22;12242;50.952;4.678;2022-12-07T05:41:32;6.90;99.90
24035;DHT22;12242;50.952;4.678;2022-12-07T05:44:18;6.90;99.90
24035;DHT22;12242;50.952;4.678;2022-12-07T05:46:45;6.90;99.90
24035;DHT22;12242;50.952;4.678;2022-12-07T05:49:12;6.90;99.90
24035;DHT22;12242;50.952;4.678;2022-12-07T05:51:40;6.90;99.90
24035;DHT22;12242;50.952;4.678;2022-12-07T05:54:07;6.90;99.90
24035;DHT22;12242;50.952;4.678;2022-12-07T05:56:37;6.90;99.90
24035;DHT22;12242;50.952;4.678;2022-12-07T05:59:04;6.90;99.90
24035;DHT22;12242;50.952;4.678;2022-12-07T06:01:59;6.80;99.90
24035;DHT22;12242;50.952;4.678;2022-12-07T06:04:29;6.90;99.90
24035;DHT22;12242;50.952;4.678;2022-12-07T06:06:57;7.00;99.90
24035;DHT22;12242;50.952;4.678;2022-12-07T06:09:26;7.00;99.90
24035;DHT22;12242;50.952;4.678;2022-12-07T06:11:55;7.00;99.90
24035;DHT22;12242;50.952;4.678;2022-12-07T06:14:44;7.10;99.90
24035;DHT22;12242;50.952;4.678;2022-12-07T06:17:12;7.10;99.90
24035;DHT22;12242;50.952;4.678;2022-12-07T06:19:42;7.20;99.90
24035;DHT22;12242;50.952;4.678;2022-12-07T06:22:10;7.20;99.90
24035;DHT22;12242;50.952;4.678;2022-12-07T06:24:39;7.20;99.90
24035;DHT22;12242;50.952;4.678;2022-12-07T06:27:06;7.20;99.90
24035;DHT22;12242;50.952;4.678;2022-12-07T06:29:34;7.10;99.90
24035;DHT22;12242;50.952;4.678;2022-12-07T06:32:03;7.00;99.90
24035;DHT22;12242;50.952;4.678;2022-12-07T06:34:32;7.10;99.90
24035;DHT22;12242;50.952;4.678;2022-12-07T06:37:01;7.20;99.90
24035;DHT22;12242;50.952;4.678;2022-12-07T06:39:31;7.20;99.90
24035;DHT22;12242;50.952;4.678;2022-12-07T06:41:59;7.20;99.90
24035;DHT22;12242;50.952;4.678;2022-12-07T06:44:27;7.30;99.90
24035;DHT22;12242;50.952;4.678;2022-12-07T06:46:55;7.20;99.90
24035;DHT22;12242;50.952;4.678;2022-12-07T06:49:45;7.20;99.90
24035;DHT22;12242;50.952;4.678;2022-12-07T06:52:12;7.20;99.90
24035;DHT22;12242;50.952;4.678;2022-12-07T06:54:42;7.20;99.90
24035;DHT22;12242;50.952;4.678;2022-12-07T06:57:09;7.20;99.90
24035;DHT22;12242;50.952;4.678;2022-12-07T06:59:37;7.20;99.90
24035;DHT22;12242;50.952;4.678;2022-12-07T07:02:08;7.20;99.90
24035;DHT22;12242;50.952;4.678;2022-12-07T07:04:36;7.30;99.90
24035;DHT22;12242;50.952;4.678;2022-12-07T07:07:06;7.30;99.90
24035;DHT22;12242;50.952;4.678;2022-12-07T07:09:34;7.10;99.90
24035;DHT22;12242;50.952;4.678;2022-12-07T07:12:01;7.10;99.90
24035;DHT22;12242;50.952;4.678;2022-12-07T07:14:28;7.20;99.90
24035;DHT22;12242;50.952;4.678;2022-12-07T07:16:56;7.10;99.90
24035;DHT22;12242;50.952;4.678;2022-12-07T07:19:23;7.20;99.90
24035;DHT22;12242;50.952;4.678;2022-12-07T07:21:53;7.20;99.90
24035;DHT22;12242;50.952;4.678;2022-12-07T07:24:22;7.30;99.90
24035;DHT22;12242;50.952;4.678;2022-12-07T07:26:50;7.10;99.90
24035;DHT22;12242;50.952;4.678;2022-12-07T07:29:19;6.90;99.90
24035;DHT22;12242;50.952;4.678;2022-12-07T07:31:49;7.00;99.90
24035;DHT22;12242;50.952;4.678;2022-12-07T07:34:16;6.80;99.90
24035;DHT22;12242;50.952;4.678;2022-12-07T07:36:43;7.00;99.90
24035;DHT22;12242;50.952;4.678;2022-12-07T07:39:13;7.00;99.90
24035;DHT22;12242;50.952;4.678;2022-12-07T07:41:43;6.90;99.90
24035;DHT22;12242;50.952;4.678;2022-12-07T07:44:11;6.90;99.90
24035;DHT22;12242;50.952;4.678;2022-12-07T07:46:38;6.80;99.90
24035;DHT22;12242;50.952;4.678;2022-12-07T07:49:06;6.90;99.90
24035;DHT22;12242;50.952;4.678;2022-12-07T07:51:33;6.90;99.90
24035;DHT22;12242;50.952;4.678;2022-12-07T07:54:01;6.90;99.90
24035;DHT22;12242;50.952;4.678;2022-12-07T07:56:28;6.90;99.90
24035;DHT22;12242;50.952;4.678;2022-12-07T07:58:55;6.90;99.90
24035;DHT22;12242;50.952;4.678;2022-12-07T08:01:23;6.90;99.90
24035;DHT22;12242;50.952;4.678;2022-12-07T08:03:50;6.90;99.90
24035;DHT22;12242;50.952;4.678;2022-12-07T08:06:18;6.90;99.90
24035;DHT22;12242;50.952;4.678;2022-12-07T08:08:45;6.80;99.90
24035;DHT22;12242;50.952;4.678;2022-12-07T08:11:15;6.80;99.90
24035;DHT22;12242;50.952;4.678;2022-12-07T08:13:46;6.80;99.90
24035;DHT22;12242;50.952;4.678;2022-12-07T08:16:16;6.70;99.90
24035;DHT22;12242;50.952;4.678;2022-12-07T08:18:46;6.70;99.90
24035;DHT22;12242;50.952;4.678;2022-12-07T08:21:17;6.70;99.90
24035;DHT22;12242;50.952;4.678;2022-12-07T08:23:47;6.80;99.90
24035;DHT22;12242;50.952;4.678;2022-12-07T08:26:15;6.90;99.90
24035;DHT22;12242;50.952;4.678;2022-12-07T08:28:43;7.00;99.90
24035;DHT22;12242;50.952;4.678;2022-12-07T08:31:17;7.10;99.90
24035;DHT22;12242;50.952;4.678;2022-12-07T08:33:48;7.20;99.90
24035;DHT22;12242;50.952;4.678;2022-12-07T08:36:15;7.20;99.90
24035;DHT22;12242;50.952;4.678;2022-12-07T08:38:46;7.30;99.90
24035;DHT22;12242;50.952;4.678;2022-12-07T08:41:33;7.40;99.90
24035;DHT22;12242;50.952;4.678;2022-12-07T08:44:01;7.50;99.90
24035;DHT22;12242;50.952;4.678;2022-12-07T08:49:13;7.70;99.90
24035;DHT22;12242;50.952;4.678;2022-12-07T08:51:44;7.90;99.90
24035;DHT22;12242;50.952;4.678;2022-12-07T08:54:15;8.10;99.90
24035;DHT22;12242;50.952;4.678;2022-12-07T08:56:44;8.20;99.90
24035;DHT22;12242;50.952;4.678;2022-12-07T08:59:17;8.30;99.90
24035;DHT22;12242;50.952;4.678;2022-12-07T09:01:44;8.20;99.90
24035;DHT22;12242;50.952;4.678;2022-12-07T09:04:12;8.10;99.90
24035;DHT22;12242;50.952;4.678;2022-12-07T09:06:40;8.00;99.90
24035;DHT22;12242;50.952;4.678;2022-12-07T09:09:08;7.80;99.90
24035;DHT22;12242;50.952;4.678;2022-12-07T09:11:36;7.80;99.90
24035;DHT22;12242;50.952;4.678;2022-12-07T09:14:04;8.00;99.90
24035;DHT22;12242;50.952;4.678;2022-12-07T09:16:31;7.90;99.90
24035;DHT22;12242;50.952;4.678;2022-12-07T09:19:01;8.00;99.90
24035;DHT22;12242;50.952;4.678;2022-12-07T09:21:31;7.90;99.90
24035;DHT22;12242;50.952;4.678;2022-12-07T09:23:58;7.80;99.90
24035;DHT22;12242;50.952;4.678;2022-12-07T09:26:31;7.70;99.90
24035;DHT22;12242;50.952;4.678;2022-12-07T09:29:04;7.60;99.90
24035;DHT22;12242;50.952;4.678;2022-12-07T09:31:36;7.60;99.90
24035;DHT22;12242;50.952;4.678;2022-12-07T09:34:05;7.80;99.90
24035;DHT22;12242;50.952;4.678;2022-12-07T09:36:36;8.30;99.90
24035;DHT22;12242;50.952;4.678;2022-12-07T09:39:06;9.10;99.90
24035;DHT22;12242;50.952;4.678;2022-12-07T09:41:38;9.30;99.90
24035;DHT22;12242;50.952;4.678;2022-12-07T09:44:14;9.40;99.90
24035;DHT22;12242;50.952;4.678;2022-12-07T09:46:47;9.50;99.90
24035;DHT22;12242;50.952;4.678;2022-12-07T09:49:21;9.50;99.90
24035;DHT22;12242;50.952;4.678;2022-12-07T09:54:46;9.60;99.90
24035;DHT22;12242;50.952;4.678;2022-12-07T09:57:14;9.50;99.90
24035;DHT22;12242;50.952;4.678;2022-12-07T09:59:42;9.40;99.90
24035;DHT22;12242;50.952;4.678;2022-12-07T10:05:01;9.50;99.90
24035;DHT22;12242;50.952;4.678;2022-12-07T10:07:33;9.40;99.90
24035;DHT22;12242;50.952;4.678;2022-12-07T10:10:13;9.40;99.90
24035;DHT22;12242;50.952;4.678;2022-12-07T10:12:55;9.50;99.90
24035;DHT22;12242;50.952;4.678;2022-12-07T10:20:48;10.00;99.90
24035;DHT22;12242;50.952;4.678;2022-12-07T10:23:17;10.20;99.90
24035;DHT22;12242;50.952;4.678;2022-12-07T10:25:45;10.50;99.90
24035;DHT22;12242;50.952;4.678;2022-12-07T10:28:17;10.90;99.90
24035;DHT22;12242;50.952;4.678;2022-12-07T10:33:32;11.50;99.90
24035;DHT22;12242;50.952;4.678;2022-12-07T10:36:00;11.50;99.90
24035;DHT22;12242;50.952;4.678;2022-12-07T10:38:47;11.80;99.90
24035;DHT22;12242;50.952;4.678;2022-12-07T10:41:16;11.70;99.90
24035;DHT22;12242;50.952;4.678;2022-12-07T10:43:54;11.60;99.90
24035;DHT22;12242;50.952;4.678;2022-12-07T10:49:39;11.20;99.90
24035;DHT22;12242;50.952;4.678;2022-12-07T11:01:00;10.40;99.90
24035;DHT22;12242;50.952;4.678;2022-12-07T11:09:04;9.80;99.90
24035;DHT22;12242;50.952;4.678;2022-12-07T11:14:28;9.50;99.90
24035;DHT22;12242;50.952;4.678;2022-12-07T11:17:23;9.40;99.90
24035;DHT22;12242;50.952;4.678;2022-12-07T11:22:49;9.80;99.90
24035;DHT22;12242;50.952;4.678;2022-12-07T11:25:37;10.00;99.90
24035;DHT22;12242;50.952;4.678;2022-12-07T11:33:55;12.00;99.90
24035;DHT22;12242;50.952;4.678;2022-12-07T11:39:16;12.90;99.90
24035;DHT22;12242;50.952;4.678;2022-12-07T11:42:13;12.90;99.90
24035;DHT22;12242;50.952;4.678;2022-12-07T11:44:59;12.80;99.90
24035;DHT22;12242;50.952;4.678;2022-12-07T11:53:14;15.80;99.90
24035;DHT22;12242;50.952;4.678;2022-12-07T12:04:16;15.80;99.90
24035;DHT22;12242;50.952;4.678;2022-12-07T12:06:45;15.40;99.90
24035;DHT22;12242;50.952;4.678;2022-12-07T12:09:20;15.10;99.90
24035;DHT22;12242;50.952;4.678;2022-12-07T12:21:29;13.20;99.90
24035;DHT22;12242;50.952;4.678;2022-12-07T12:24:02;13.80;99.90
24035;DHT22;12242;50.952;4.678;2022-12-07T12:26:37;14.60;99.90
24035;DHT22;12242;50.952;4.678;2022-12-07T12:29:18;14.40;99.90
24035;DHT22;12242;50.952;4.678;2022-12-07T12:32:24;14.00;99.90
24035;DHT22;12242;50.952;4.678;2022-12-07T12:35:01;13.50;99.90
24035;DHT22;12242;50.952;4.678;2022-12-07T12:37:39;12.90;99.90
24035;DHT22;12242;50.952;4.678;2022-12-07T12:42:54;13.20;99.90
24035;DHT22;12242;50.952;4.678;2022-12-07T12:45:30;14.40;99.90
24035;DHT22;12242;50.952;4.678;2022-12-07T12:48:28;15.70;99.90
24035;DHT22;12242;50.952;4.678;2022-12-07T12:57:13;15.70;99.90
24035;DHT22;12242;50.952;4.678;2022-12-07T13:05:21;15.70;97.90
24035;DHT22;12242;50.952;4.678;2022-12-07T13:07:54;14.90;99.70
24035;DHT22;12242;50.952;4.678;2022-12-07T13:15:45;13.70;99.90
24035;DHT22;12242;50.952;4.678;2022-12-07T13:18:25;13.20;99.90
24035;DHT22;12242;50.952;4.678;2022-12-07T13:23:52;12.00;99.90
24035;DHT22;12242;50.952;4.678;2022-12-07T13:26:37;11.90;99.90
24035;DHT22;12242;50.952;4.678;2022-12-07T13:29:15;11.70;99.90
24035;DHT22;12242;50.952;4.678;2022-12-07T13:31:53;11.40;99.90
24035;DHT22;12242;50.952;4.678;2022-12-07T13:34:37;11.20;99.90
24035;DHT22;12242;50.952;4.678;2022-12-07T13:40:30;10.80;99.90
24035;DHT22;12242;50.952;4.678;2022-12-07T13:42:34;10.70;99.90
24035;DHT22;12242;50.952;4.678;2022-12-07T13:45:25;10.50;99.90
24035;DHT22;12242;50.952;4.678;2022-12-07T13:48:31;10.30;99.90
24035;DHT22;12242;50.952;4.678;2022-12-07T13:51:19;10.20;99.90
24035;DHT22;12242;50.952;4.678;2022-12-07T13:53:48;10.10;99.90
24035;DHT22;12242;50.952;4.678;2022-12-07T13:56:18;10.20;99.90
24035;DHT22;12242;50.952;4.678;2022-12-07T13:58:48;10.20;99.90
24035;DHT22;12242;50.952;4.678;2022-12-07T14:01:15;10.20;99.90
24035;DHT22;12242;50.952;4.678;2022-12-07T14:03:42;10.30;99.90
24035;DHT22;12242;50.952;4.678;2022-12-07T14:06:20;10.20;99.90
24035;DHT22;12242;50.952;4.678;2022-12-07T14:08:49;10.00;99.90
24035;DHT22;12242;50.952;4.678;2022-12-07T14:11:29;9.90;99.90
24035;DHT22;12242;50.952;4.678;2022-12-07T14:14:03;9.70;99.90
24035;DHT22;12242;50.952;4.678;2022-12-07T14:16:35;9.60;99.90
24035;DHT22;12242;50.952;4.678;2022-12-07T14:19:05;9.40;99.90
24035;DHT22;12242;50.952;4.678;2022-12-07T14:22:17;9.20;99.90
24035;DHT22;12242;50.952;4.678;2022-12-07T14:24:45;9.10;99.90
24035;DHT22;12242;50.952;4.678;2022-12-07T14:27:23;9.00;99.90
24035;DHT22;12242;50.952;4.678;2022-12-07T14:30:00;8.80;99.90
24035;DHT22;12242;50.952;4.678;2022-12-07T14:32:29;8.60;99.90
24035;DHT22;12242;50.952;4.678;2022-12-07T14:35:17;8.50;99.90
24035;DHT22;12242;50.952;4.678;2022-12-07T14:37:50;8.30;99.90
24035;DHT22;12242;50.952;4.678;2022-12-07T14:40:26;8.20;99.90
24035;DHT22;12242;50.952;4.678;2022-12-07T14:43:01;8.30;99.90
24035;DHT22;12242;50.952;4.678;2022-12-07T14:45:29;8.30;99.90
24035;DHT22;12242;50.952;4.678;2022-12-07T14:47:57;8.40;99.90
24035;DHT22;12242;50.952;4.678;2022-12-07T14:50:48;8.50;99.90
24035;DHT22;12242;50.952;4.678;2022-12-07T14:53:40;8.50;99.90
24035;DHT22;12242;50.952;4.678;2022-12-07T14:56:09;8.60;99.90
24035;DHT22;12242;50.952;4.678;2022-12-07T14:58:36;8.60;99.90
24035;DHT22;12242;50.952;4.678;2022-12-07T15:01:04;8.50;99.90
24035;DHT22;12242;50.952;4.678;2022-12-07T15:03:32;8.50;99.90
24035;DHT22;12242;50.952;4.678;2022-12-07T15:06:04;8.40;99.90
24035;DHT22;12242;50.952;4.678;2022-12-07T15:08:34;8.40;99.90
24035;DHT22;12242;50.952;4.678;2022-12-07T15:11:01;8.40;99.90
24035;DHT22;12242;50.952;4.678;2022-12-07T15:13:29;8.50;99.90
24035;DHT22;12242;50.952;4.678;2022-12-07T15:16:19;8.40;99.90
24035;DHT22;12242;50.952;4.678;2022-12-07T15:18:47;8.30;99.90
24035;DHT22;12242;50.952;4.678;2022-12-07T15:21:37;8.20;99.90
24035;DHT22;12242;50.952;4.678;2022-12-07T15:24:05;8.10;99.90
24035;DHT22;12242;50.952;4.678;2022-12-07T15:26:35;8.00;99.90
24035;DHT22;12242;50.952;4.678;2022-12-07T15:29:03;7.80;99.90
24035;DHT22;12242;50.952;4.678;2022-12-07T15:31:31;7.80;99.90
24035;DHT22;12242;50.952;4.678;2022-12-07T15:34:19;7.70;99.90
24035;DHT22;12242;50.952;4.678;2022-12-07T15:36:49;7.80;99.90
24035;DHT22;12242;50.952;4.678;2022-12-07T15:39:19;7.70;99.90
24035;DHT22;12242;50.952;4.678;2022-12-07T15:41:46;7.80;99.90
24035;DHT22;12242;50.952;4.678;2022-12-07T15:44:15;7.90;99.90
24035;DHT22;12242;50.952;4.678;2022-12-07T15:47:01;7.90;99.90
24035;DHT22;12242;50.952;4.678;2022-12-07T15:49:29;7.90;99.90
24035;DHT22;12242;50.952;4.678;2022-12-07T15:51:57;8.00;99.90
24035;DHT22;12242;50.952;4.678;2022-12-07T15:54:29;8.00;99.90
24035;DHT22;12242;50.952;4.678;2022-12-07T15:56:59;8.00;99.90
24035;DHT22;12242;50.952;4.678;2022-12-07T15:59:28;8.10;99.90
24035;DHT22;12242;50.952;4.678;2022-12-07T16:02:01;8.10;99.90
24035;DHT22;12242;50.952;4.678;2022-12-07T16:04:28;8.10;99.90
24035;DHT22;12242;50.952;4.678;2022-12-07T16:06:59;8.20;99.90
24035;DHT22;12242;50.952;4.678;2022-12-07T16:09:29;8.20;99.90
24035;DHT22;12242;50.952;4.678;2022-12-07T16:11:56;8.10;99.90
24035;DHT22;12242;50.952;4.678;2022-12-07T16:14:27;8.10;99.90
24035;DHT22;12242;50.952;4.678;2022-12-07T16:16:57;8.00;99.90
24035;DHT22;12242;50.952;4.678;2022-12-07T16:19:27;8.00;99.90
24035;DHT22;12242;50.952;4.678;2022-12-07T16:21:57;8.00;99.90
24035;DHT22;12242;50.952;4.678;2022-12-07T16:24:25;8.00;99.90
24035;DHT22;12242;50.952;4.678;2022-12-07T16:26:53;8.00;99.90
24035;DHT22;12242;50.952;4.678;2022-12-07T16:29:26;7.90;99.90
24035;DHT22;12242;50.952;4.678;2022-12-07T16:31:54;8.00;99.90
24035;DHT22;12242;50.952;4.678;2022-12-07T16:34:21;8.00;99.90
24035;DHT22;12242;50.952;4.678;2022-12-07T16:36:49;8.00;99.90
24035;DHT22;12242;50.952;4.678;2022-12-07T16:39:33;8.00;99.90
24035;DHT22;12242;50.952;4.678;2022-12-07T16:42:03;8.00;99.90
24035;DHT22;12242;50.952;4.678;2022-12-07T16:44:31;8.00;99.90
24035;DHT22;12242;50.952;4.678;2022-12-07T16:47:00;7.90;99.90
24035;DHT22;12242;50.952;4.678;2022-12-07T16:49:30;8.00;99.90
24035;DHT22;12242;50.952;4.678;2022-12-07T16:52:00;8.00;99.90
24035;DHT22;12242;50.952;4.678;2022-12-07T16:54:48;7.90;99.90
24035;DHT22;12242;50.952;4.678;2022-12-07T16:57:19;7.90;99.90
24035;DHT22;12242;50.952;4.678;2022-12-07T16:59:53;8.00;99.90
24035;DHT22;12242;50.952;4.678;2022-12-07T17:02:20;8.00;99.90
24035;DHT22;12242;50.952;4.678;2022-12-07T17:04:48;8.10;99.90
24035;DHT22;12242;50.952;4.678;2022-12-07T17:07:16;8.00;99.90
24035;DHT22;12242;50.952;4.678;2022-12-07T17:09:43;7.90;99.90
24035;DHT22;12242;50.952;4.678;2022-12-07T17:12:13;7.90;99.90
24035;DHT22;12242;50.952;4.678;2022-12-07T17:14:42;7.80;99.90
24035;DHT22;12242;50.952;4.678;2022-12-07T17:17:29;7.70;99.90
24035;DHT22;12242;50.952;4.678;2022-12-07T17:19:56;7.70;99.90
24035;DHT22;12242;50.952;4.678;2022-12-07T17:22:23;7.70;99.90
24035;DHT22;12242;50.952;4.678;2022-12-07T17:24:53;7.80;99.90
24035;DHT22;12242;50.952;4.678;2022-12-07T17:27:24;7.80;99.90
24035;DHT22;12242;50.952;4.678;2022-12-07T17:29:56;7.80;99.90
24035;DHT22;12242;50.952;4.678;2022-12-07T17:32:25;7.70;99.90
24035;DHT22;12242;50.952;4.678;2022-12-07T17:34:56;7.70;99.90
24035;DHT22;12242;50.952;4.678;2022-12-07T17:37:27;7.80;99.90
24035;DHT22;12242;50.952;4.678;2022-12-07T17:39:54;7.80;99.90
24035;DHT22;12242;50.952;4.678;2022-12-07T17:42:27;7.80;99.90
24035;DHT22;12242;50.952;4.678;2022-12-07T17:45:04;7.80;99.90
24035;DHT22;12242;50.952;4.678;2022-12-07T17:47:36;7.80;99.90
24035;DHT22;12242;50.952;4.678;2022-12-07T17:50:05;7.80;99.90
24035;DHT22;12242;50.952;4.678;2022-12-07T17:52:39;7.90;99.90
24035;DHT22;12242;50.952;4.678;2022-12-07T17:55:25;7.90;99.90
24035;DHT22;12242;50.952;4.678;2022-12-07T17:57:55;7.90;99.90
24035;DHT22;12242;50.952;4.678;2022-12-07T18:00:25;8.00;99.90
24035;DHT22;12242;50.952;4.678;2022-12-07T18:02:55;7.90;99.90
24035;DHT22;12242;50.952;4.678;2022-12-07T18:05:25;8.00;99.90
24035;DHT22;12242;50.952;4.678;2022-12-07T18:07:55;8.00;99.90
24035;DHT22;12242;50.952;4.678;2022-12-07T18:10:23;8.00;99.90
24035;DHT22;12242;50.952;4.678;2022-12-07T18:12:52;8.10;99.90
24035;DHT22;12242;50.952;4.678;2022-12-07T18:15:39;8.10;99.90
24035;DHT22;12242;50.952;4.678;2022-12-07T18:18:09;7.90;99.90
24035;DHT22;12242;50.952;4.678;2022-12-07T18:20:39;7.90;99.90
24035;DHT22;12242;50.952;4.678;2022-12-07T18:23:07;7.90;99.90
24035;DHT22;12242;50.952;4.678;2022-12-07T18:25:34;7.90;99.90
24035;DHT22;12242;50.952;4.678;2022-12-07T18:28:04;7.90;99.90